Terminal Aerodrome Forecast
Issued by NWS Sterling, VA

Current Version | Previous Version | Graphics & Text | Print | Product List | Glossary On
Versions: 1 2 3 4 5 6 7 8 9 10 11 12 13 14 15 16 17 18 19 20 21 22 23
684
FTUS41 KLWX 211142 CCA
TAFMRB
TAF COR
KMRB 211142Z 2112/2212 05005KT P6SM -RA OVC040
     FM212000 VRB03KT P6SM BKN020
     FM220200 VRB03KT P6SM BKN040
     FM220400 31006KT P6SM SCT120=

USA.gov is the U.S. government's official web portal to all federal, state and local government web resources and services.